Terminal Aerodrome Forecast
Issued by NWS

Home | Current Version | Previous Version | Text Only | Print | Product List | Glossary On
Versions: 1 2 3 4 5 6 7 8 9 10 11 12 13 14 15 16
324
FTUS43 KAPX 271722
TAFTVC
TAF
KTVC 271722Z 2718/2818 35006KT P6SM SCT100
     FM272000 34007KT P6SM BKN080
     FM280300 VRB03KT P6SM BKN110
     FM280800 01004KT P6SM BKN060
     FM281500 03006KT P6SM SCT100=

USA.gov is the U.S. government's official web portal to all federal, state and local government web resources and services.